sensor_id;sensor_type;location;lat;lon;timestamp;P1;durP1;ratioP1;P2;durP2;ratioP2
18102;SDS011;9178;51.120;6.192;2024-02-14T00:00:05;3.23;;;0.87;;
18102;SDS011;9178;51.120;6.192;2024-02-14T00:02:39;1.20;;;0.90;;
18102;SDS011;9178;51.120;6.192;2024-02-14T00:05:06;1.93;;;1.10;;
18102;SDS011;9178;51.120;6.192;2024-02-14T00:07:35;2.70;;;1.00;;
18102;SDS011;9178;51.120;6.192;2024-02-14T00:10:03;2.73;;;1.20;;
18102;SDS011;9178;51.120;6.192;2024-02-14T00:12:32;1.63;;;0.80;;
18102;SDS011;9178;51.120;6.192;2024-02-14T00:15:02;1.10;;;0.90;;
18102;SDS011;9178;51.120;6.192;2024-02-14T00:17:31;3.03;;;1.20;;
18102;SDS011;9178;51.120;6.192;2024-02-14T00:19:58;2.30;;;1.00;;
18102;SDS011;9178;51.120;6.192;2024-02-14T00:22:26;1.90;;;1.10;;
18102;SDS011;9178;51.120;6.192;2024-02-14T00:24:53;0.80;;;0.70;;
18102;SDS011;9178;51.120;6.192;2024-02-14T00:27:20;2.17;;;1.00;;
18102;SDS011;9178;51.120;6.192;2024-02-14T00:29:47;1.80;;;0.90;;
18102;SDS011;9178;51.120;6.192;2024-02-14T00:32:15;2.17;;;1.30;;
18102;SDS011;9178;51.120;6.192;2024-02-14T00:34:43;2.47;;;1.10;;
18102;SDS011;9178;51.120;6.192;2024-02-14T00:37:10;2.07;;;0.80;;
18102;SDS011;9178;51.120;6.192;2024-02-14T00:39:38;2.00;;;1.10;;
18102;SDS011;9178;51.120;6.192;2024-02-14T00:42:06;1.93;;;1.10;;
18102;SDS011;9178;51.120;6.192;2024-02-14T00:44:33;1.23;;;1.10;;
18102;SDS011;9178;51.120;6.192;2024-02-14T00:47:00;1.50;;;0.90;;
18102;SDS011;9178;51.120;6.192;2024-02-14T00:49:33;1.40;;;0.80;;
18102;SDS011;9178;51.120;6.192;2024-02-14T00:52:04;1.27;;;1.10;;
18102;SDS011;9178;51.120;6.192;2024-02-14T00:54:31;9.17;;;1.20;;
18102;SDS011;9178;51.120;6.192;2024-02-14T00:57:00;2.00;;;1.10;;
18102;SDS011;9178;51.120;6.192;2024-02-14T00:59:27;1.70;;;1.00;;
18102;SDS011;9178;51.120;6.192;2024-02-14T01:01:55;1.47;;;1.10;;
18102;SDS011;9178;51.120;6.192;2024-02-14T01:04:22;1.33;;;1.00;;
18102;SDS011;9178;51.120;6.192;2024-02-14T01:06:52;3.07;;;1.10;;
18102;SDS011;9178;51.120;6.192;2024-02-14T01:09:23;1.10;;;1.00;;
18102;SDS011;9178;51.120;6.192;2024-02-14T01:11:50;3.47;;;0.80;;
18102;SDS011;9178;51.120;6.192;2024-02-14T01:14:18;1.77;;;1.00;;
18102;SDS011;9178;51.120;6.192;2024-02-14T01:16:47;2.40;;;1.10;;
18102;SDS011;9178;51.120;6.192;2024-02-14T01:19:22;1.80;;;0.90;;
18102;SDS011;9178;51.120;6.192;2024-02-14T01:21:57;1.00;;;0.90;;
18102;SDS011;9178;51.120;6.192;2024-02-14T01:24:24;1.23;;;1.00;;
18102;SDS011;9178;51.120;6.192;2024-02-14T01:26:52;3.17;;;0.83;;
18102;SDS011;9178;51.120;6.192;2024-02-14T01:29:23;2.60;;;1.20;;
18102;SDS011;9178;51.120;6.192;2024-02-14T01:31:59;0.87;;;0.80;;
18102;SDS011;9178;51.120;6.192;2024-02-14T01:34:27;3.60;;;1.00;;
18102;SDS011;9178;51.120;6.192;2024-02-14T01:36:56;1.03;;;0.90;;
18102;SDS011;9178;51.120;6.192;2024-02-14T01:39:24;1.53;;;0.80;;
18102;SDS011;9178;51.120;6.192;2024-02-14T01:41:54;1.27;;;0.70;;
18102;SDS011;9178;51.120;6.192;2024-02-14T01:44:24;1.10;;;0.80;;
18102;SDS011;9178;51.120;6.192;2024-02-14T01:46:51;2.07;;;1.17;;
18102;SDS011;9178;51.120;6.192;2024-02-14T01:49:19;2.37;;;0.90;;
18102;SDS011;9178;51.120;6.192;2024-02-14T01:51:59;2.20;;;0.93;;
18102;SDS011;9178;51.120;6.192;2024-02-14T01:54:29;1.90;;;1.00;;
18102;SDS011;9178;51.120;6.192;2024-02-14T01:56:59;0.80;;;0.77;;
18102;SDS011;9178;51.120;6.192;2024-02-14T01:59:35;1.60;;;1.07;;
18102;SDS011;9178;51.120;6.192;2024-02-14T02:02:03;1.20;;;1.10;;
18102;SDS011;9178;51.120;6.192;2024-02-14T02:04:32;1.27;;;1.17;;
18102;SDS011;9178;51.120;6.192;2024-02-14T02:07:01;2.03;;;1.00;;
18102;SDS011;9178;51.120;6.192;2024-02-14T02:09:29;3.80;;;1.40;;
18102;SDS011;9178;51.120;6.192;2024-02-14T02:11:56;1.50;;;1.10;;
18102;SDS011;9178;51.120;6.192;2024-02-14T02:14:25;1.97;;;1.00;;
18102;SDS011;9178;51.120;6.192;2024-02-14T02:16:55;4.00;;;1.10;;
18102;SDS011;9178;51.120;6.192;2024-02-14T02:19:22;0.80;;;0.80;;
18102;SDS011;9178;51.120;6.192;2024-02-14T02:21:51;1.47;;;1.27;;
18102;SDS011;9178;51.120;6.192;2024-02-14T02:24:20;2.43;;;1.20;;
18102;SDS011;9178;51.120;6.192;2024-02-14T02:26:52;2.03;;;1.10;;
18102;SDS011;9178;51.120;6.192;2024-02-14T02:29:20;2.77;;;1.27;;
18102;SDS011;9178;51.120;6.192;2024-02-14T02:31:47;2.30;;;1.40;;
18102;SDS011;9178;51.120;6.192;2024-02-14T02:34:14;2.17;;;1.10;;
18102;SDS011;9178;51.120;6.192;2024-02-14T02:36:41;2.27;;;1.40;;
18102;SDS011;9178;51.120;6.192;2024-02-14T02:39:11;2.27;;;1.30;;
18102;SDS011;9178;51.120;6.192;2024-02-14T02:41:40;1.73;;;1.10;;
18102;SDS011;9178;51.120;6.192;2024-02-14T02:44:07;3.83;;;1.30;;
18102;SDS011;9178;51.120;6.192;2024-02-14T02:46:49;2.30;;;1.30;;
18102;SDS011;9178;51.120;6.192;2024-02-14T02:49:18;1.47;;;1.37;;
18102;SDS011;9178;51.120;6.192;2024-02-14T02:51:46;2.33;;;1.30;;
18102;SDS011;9178;51.120;6.192;2024-02-14T02:54:13;1.27;;;1.17;;
18102;SDS011;9178;51.120;6.192;2024-02-14T02:56:45;1.77;;;1.30;;
18102;SDS011;9178;51.120;6.192;2024-02-14T02:59:13;1.93;;;1.30;;
18102;SDS011;9178;51.120;6.192;2024-02-14T03:01:42;1.40;;;1.30;;
18102;SDS011;9178;51.120;6.192;2024-02-14T03:04:12;1.93;;;1.20;;
18102;SDS011;9178;51.120;6.192;2024-02-14T03:06:39;2.50;;;1.47;;
18102;SDS011;9178;51.120;6.192;2024-02-14T03:09:08;2.67;;;1.50;;
18102;SDS011;9178;51.120;6.192;2024-02-14T03:11:35;3.53;;;2.57;;
18102;SDS011;9178;51.120;6.192;2024-02-14T03:14:04;1.23;;;1.17;;
18102;SDS011;9178;51.120;6.192;2024-02-14T03:16:33;2.87;;;1.60;;
18102;SDS011;9178;51.120;6.192;2024-02-14T03:19:02;1.70;;;1.30;;
18102;SDS011;9178;51.120;6.192;2024-02-14T03:21:30;1.87;;;1.60;;
18102;SDS011;9178;51.120;6.192;2024-02-14T03:24:00;2.33;;;1.67;;
18102;SDS011;9178;51.120;6.192;2024-02-14T03:26:28;3.83;;;1.50;;
18102;SDS011;9178;51.120;6.192;2024-02-14T03:28:59;2.83;;;1.30;;
18102;SDS011;9178;51.120;6.192;2024-02-14T03:31:28;1.87;;;1.60;;
18102;SDS011;9178;51.120;6.192;2024-02-14T03:33:56;2.50;;;1.40;;
18102;SDS011;9178;51.120;6.192;2024-02-14T03:36:23;2.27;;;1.80;;
18102;SDS011;9178;51.120;6.192;2024-02-14T03:38:53;1.77;;;1.60;;
18102;SDS011;9178;51.120;6.192;2024-02-14T03:41:29;1.40;;;1.30;;
18102;SDS011;9178;51.120;6.192;2024-02-14T03:43:56;3.30;;;2.03;;
18102;SDS011;9178;51.120;6.192;2024-02-14T03:46:30;1.57;;;1.47;;
18102;SDS011;9178;51.120;6.192;2024-02-14T03:49:00;2.03;;;1.40;;
18102;SDS011;9178;51.120;6.192;2024-02-14T03:51:28;2.10;;;1.80;;
18102;SDS011;9178;51.120;6.192;2024-02-14T03:53:58;3.63;;;1.53;;
18102;SDS011;9178;51.120;6.192;2024-02-14T03:56:26;1.90;;;1.50;;
18102;SDS011;9178;51.120;6.192;2024-02-14T03:58:55;2.97;;;1.70;;
18102;SDS011;9178;51.120;6.192;2024-02-14T04:01:28;2.13;;;1.90;;
18102;SDS011;9178;51.120;6.192;2024-02-14T04:03:56;2.60;;;1.37;;
18102;SDS011;9178;51.120;6.192;2024-02-14T04:06:24;2.63;;;1.60;;
18102;SDS011;9178;51.120;6.192;2024-02-14T04:08:52;3.20;;;1.53;;
18102;SDS011;9178;51.120;6.192;2024-02-14T04:11:19;1.87;;;1.77;;
18102;SDS011;9178;51.120;6.192;2024-02-14T04:13:46;3.50;;;1.60;;
18102;SDS011;9178;51.120;6.192;2024-02-14T04:16:13;2.20;;;1.57;;
18102;SDS011;9178;51.120;6.192;2024-02-14T04:18:43;2.53;;;1.50;;
18102;SDS011;9178;51.120;6.192;2024-02-14T04:21:11;2.50;;;1.60;;
18102;SDS011;9178;51.120;6.192;2024-02-14T04:23:38;1.97;;;1.50;;
18102;SDS011;9178;51.120;6.192;2024-02-14T04:26:05;2.07;;;1.60;;
18102;SDS011;9178;51.120;6.192;2024-02-14T04:28:33;3.37;;;1.80;;
18102;SDS011;9178;51.120;6.192;2024-02-14T04:31:00;2.10;;;1.80;;
18102;SDS011;9178;51.120;6.192;2024-02-14T04:33:27;1.93;;;1.70;;
18102;SDS011;9178;51.120;6.192;2024-02-14T04:35:57;2.63;;;1.73;;
18102;SDS011;9178;51.120;6.192;2024-02-14T04:38:24;3.00;;;2.00;;
18102;SDS011;9178;51.120;6.192;2024-02-14T04:40:51;2.03;;;1.83;;
18102;SDS011;9178;51.120;6.192;2024-02-14T04:43:18;4.07;;;2.00;;
18102;SDS011;9178;51.120;6.192;2024-02-14T04:45:45;3.40;;;2.30;;
18102;SDS011;9178;51.120;6.192;2024-02-14T04:48:13;3.97;;;2.80;;
18102;SDS011;9178;51.120;6.192;2024-02-14T04:50:40;4.10;;;2.67;;
18102;SDS011;9178;51.120;6.192;2024-02-14T04:53:11;3.63;;;2.90;;
18102;SDS011;9178;51.120;6.192;2024-02-14T04:55:39;4.10;;;3.00;;
18102;SDS011;9178;51.120;6.192;2024-02-14T04:58:09;4.67;;;3.20;;
18102;SDS011;9178;51.120;6.192;2024-02-14T05:00:36;7.30;;;3.03;;
18102;SDS011;9178;51.120;6.192;2024-02-14T05:03:04;4.40;;;2.83;;
18102;SDS011;9178;51.120;6.192;2024-02-14T05:05:32;5.07;;;3.27;;
18102;SDS011;9178;51.120;6.192;2024-02-14T05:08:00;4.00;;;3.30;;
18102;SDS011;9178;51.120;6.192;2024-02-14T05:10:29;4.53;;;2.90;;
18102;SDS011;9178;51.120;6.192;2024-02-14T05:12:56;5.40;;;3.40;;
18102;SDS011;9178;51.120;6.192;2024-02-14T05:15:23;3.77;;;2.67;;
18102;SDS011;9178;51.120;6.192;2024-02-14T05:17:53;6.07;;;2.90;;
18102;SDS011;9178;51.120;6.192;2024-02-14T05:20:21;3.30;;;3.00;;
18102;SDS011;9178;51.120;6.192;2024-02-14T05:22:48;4.03;;;3.00;;
18102;SDS011;9178;51.120;6.192;2024-02-14T05:25:15;4.60;;;3.00;;
18102;SDS011;9178;51.120;6.192;2024-02-14T05:27:47;3.47;;;2.97;;
18102;SDS011;9178;51.120;6.192;2024-02-14T05:30:14;8.23;;;3.30;;
18102;SDS011;9178;51.120;6.192;2024-02-14T05:32:42;4.17;;;3.00;;
18102;SDS011;9178;51.120;6.192;2024-02-14T05:35:09;3.90;;;3.00;;
18102;SDS011;9178;51.120;6.192;2024-02-14T05:37:36;4.43;;;3.10;;
18102;SDS011;9178;51.120;6.192;2024-02-14T05:40:03;3.77;;;3.10;;
18102;SDS011;9178;51.120;6.192;2024-02-14T05:42:32;3.40;;;3.10;;
18102;SDS011;9178;51.120;6.192;2024-02-14T05:45:02;3.17;;;2.90;;
18102;SDS011;9178;51.120;6.192;2024-02-14T05:47:30;3.20;;;2.90;;
18102;SDS011;9178;51.120;6.192;2024-02-14T05:49:58;3.40;;;2.93;;
18102;SDS011;9178;51.120;6.192;2024-02-14T05:52:29;4.83;;;3.00;;
18102;SDS011;9178;51.120;6.192;2024-02-14T05:54:56;4.70;;;3.03;;
18102;SDS011;9178;51.120;6.192;2024-02-14T05:57:24;4.30;;;3.50;;
18102;SDS011;9178;51.120;6.192;2024-02-14T05:59:51;4.63;;;3.03;;
18102;SDS011;9178;51.120;6.192;2024-02-14T06:02:21;3.90;;;3.37;;
18102;SDS011;9178;51.120;6.192;2024-02-14T06:04:48;3.07;;;2.87;;
18102;SDS011;9178;51.120;6.192;2024-02-14T06:07:15;4.37;;;2.73;;
18102;SDS011;9178;51.120;6.192;2024-02-14T06:09:42;4.80;;;2.90;;
18102;SDS011;9178;51.120;6.192;2024-02-14T06:12:10;4.63;;;3.17;;
18102;SDS011;9178;51.120;6.192;2024-02-14T06:14:40;5.30;;;3.00;;
18102;SDS011;9178;51.120;6.192;2024-02-14T06:17:07;3.10;;;2.73;;
18102;SDS011;9178;51.120;6.192;2024-02-14T06:19:36;5.40;;;3.13;;
18102;SDS011;9178;51.120;6.192;2024-02-14T06:22:05;3.83;;;2.60;;
18102;SDS011;9178;51.120;6.192;2024-02-14T06:24:32;3.60;;;3.00;;
18102;SDS011;9178;51.120;6.192;2024-02-14T06:26:59;3.10;;;2.33;;
18102;SDS011;9178;51.120;6.192;2024-02-14T06:29:26;4.80;;;2.80;;
18102;SDS011;9178;51.120;6.192;2024-02-14T06:31:56;3.73;;;2.80;;
18102;SDS011;9178;51.120;6.192;2024-02-14T06:34:25;2.70;;;2.50;;
18102;SDS011;9178;51.120;6.192;2024-02-14T06:36:54;2.77;;;2.40;;
18102;SDS011;9178;51.120;6.192;2024-02-14T06:39:22;5.13;;;2.70;;
18102;SDS011;9178;51.120;6.192;2024-02-14T06:41:49;3.80;;;2.60;;
18102;SDS011;9178;51.120;6.192;2024-02-14T06:44:16;3.83;;;2.30;;
18102;SDS011;9178;51.120;6.192;2024-02-14T06:46:44;2.50;;;2.30;;
18102;SDS011;9178;51.120;6.192;2024-02-14T06:49:11;3.37;;;3.07;;
18102;SDS011;9178;51.120;6.192;2024-02-14T06:51:38;2.57;;;2.30;;
18102;SDS011;9178;51.120;6.192;2024-02-14T06:54:06;3.63;;;2.23;;
18102;SDS011;9178;51.120;6.192;2024-02-14T06:56:36;4.10;;;2.50;;
18102;SDS011;9178;51.120;6.192;2024-02-14T06:59:07;3.47;;;2.37;;
18102;SDS011;9178;51.120;6.192;2024-02-14T07:01:34;3.10;;;2.00;;
18102;SDS011;9178;51.120;6.192;2024-02-14T07:04:04;3.07;;;2.30;;
18102;SDS011;9178;51.120;6.192;2024-02-14T07:06:33;2.27;;;2.07;;
18102;SDS011;9178;51.120;6.192;2024-02-14T07:09:00;2.27;;;2.00;;
18102;SDS011;9178;51.120;6.192;2024-02-14T07:11:29;2.83;;;1.90;;
18102;SDS011;9178;51.120;6.192;2024-02-14T07:13:56;2.47;;;2.00;;
18102;SDS011;9178;51.120;6.192;2024-02-14T07:16:26;2.50;;;2.30;;
18102;SDS011;9178;51.120;6.192;2024-02-14T07:18:53;3.13;;;2.37;;
18102;SDS011;9178;51.120;6.192;2024-02-14T07:21:21;3.90;;;2.37;;
18102;SDS011;9178;51.120;6.192;2024-02-14T07:23:48;2.30;;;2.10;;
18102;SDS011;9178;51.120;6.192;2024-02-14T07:26:15;2.87;;;2.23;;
18102;SDS011;9178;51.120;6.192;2024-02-14T07:28:44;2.93;;;1.90;;
18102;SDS011;9178;51.120;6.192;2024-02-14T07:31:11;2.20;;;1.97;;
18102;SDS011;9178;51.120;6.192;2024-02-14T07:33:38;3.33;;;2.03;;
18102;SDS011;9178;51.120;6.192;2024-02-14T07:36:06;3.80;;;2.00;;
18102;SDS011;9178;51.120;6.192;2024-02-14T07:38:34;3.37;;;2.20;;
18102;SDS011;9178;51.120;6.192;2024-02-14T07:41:01;2.03;;;1.90;;
18102;SDS011;9178;51.120;6.192;2024-02-14T07:43:29;4.77;;;2.63;;
18102;SDS011;9178;51.120;6.192;2024-02-14T07:45:57;2.77;;;1.90;;
18102;SDS011;9178;51.120;6.192;2024-02-14T07:48:24;1.90;;;1.80;;
18102;SDS011;9178;51.120;6.192;2024-02-14T07:50:52;2.23;;;1.77;;
18102;SDS011;9178;51.120;6.192;2024-02-14T07:53:19;2.27;;;1.77;;
18102;SDS011;9178;51.120;6.192;2024-02-14T07:55:46;2.77;;;1.80;;
18102;SDS011;9178;51.120;6.192;2024-02-14T07:58:14;1.60;;;1.50;;
18102;SDS011;9178;51.120;6.192;2024-02-14T08:00:41;1.80;;;1.70;;
18102;SDS011;9178;51.120;6.192;2024-02-14T08:03:10;2.30;;;1.60;;
18102;SDS011;9178;51.120;6.192;2024-02-14T08:05:37;2.73;;;1.57;;
18102;SDS011;9178;51.120;6.192;2024-02-14T08:08:06;3.53;;;1.70;;
18102;SDS011;9178;51.120;6.192;2024-02-14T08:10:33;2.20;;;1.50;;
18102;SDS011;9178;51.120;6.192;2024-02-14T08:13:00;2.37;;;1.90;;
18102;SDS011;9178;51.120;6.192;2024-02-14T08:15:29;2.97;;;2.13;;
18102;SDS011;9178;51.120;6.192;2024-02-14T08:17:57;3.23;;;1.50;;
18102;SDS011;9178;51.120;6.192;2024-02-14T08:20:25;1.70;;;1.50;;
18102;SDS011;9178;51.120;6.192;2024-02-14T08:22:52;2.73;;;1.50;;
18102;SDS011;9178;51.120;6.192;2024-02-14T08:25:20;1.33;;;1.20;;
18102;SDS011;9178;51.120;6.192;2024-02-14T08:27:47;2.33;;;1.30;;
18102;SDS011;9178;51.120;6.192;2024-02-14T08:30:23;2.67;;;1.50;;
18102;SDS011;9178;51.120;6.192;2024-02-14T08:32:50;3.77;;;1.80;;
18102;SDS011;9178;51.120;6.192;2024-02-14T08:35:17;2.40;;;1.40;;
18102;SDS011;9178;51.120;6.192;2024-02-14T08:37:45;1.93;;;1.60;;
18102;SDS011;9178;51.120;6.192;2024-02-14T08:40:13;2.20;;;1.20;;
18102;SDS011;9178;51.120;6.192;2024-02-14T08:42:40;3.23;;;1.40;;
18102;SDS011;9178;51.120;6.192;2024-02-14T08:45:07;2.90;;;1.30;;
18102;SDS011;9178;51.120;6.192;2024-02-14T08:47:35;2.60;;;1.23;;
18102;SDS011;9178;51.120;6.192;2024-02-14T08:50:03;2.90;;;1.77;;
18102;SDS011;9178;51.120;6.192;2024-02-14T08:52:31;1.70;;;1.57;;
18102;SDS011;9178;51.120;6.192;2024-02-14T08:55:00;2.63;;;1.50;;
18102;SDS011;9178;51.120;6.192;2024-02-14T08:57:27;1.63;;;1.40;;
18102;SDS011;9178;51.120;6.192;2024-02-14T08:59:56;2.30;;;1.50;;
18102;SDS011;9178;51.120;6.192;2024-02-14T09:02:23;3.70;;;1.43;;
18102;SDS011;9178;51.120;6.192;2024-02-14T09:04:50;2.13;;;1.40;;
18102;SDS011;9178;51.120;6.192;2024-02-14T09:07:18;2.10;;;1.33;;
18102;SDS011;9178;51.120;6.192;2024-02-14T09:09:45;3.60;;;1.63;;
18102;SDS011;9178;51.120;6.192;2024-02-14T09:12:14;3.60;;;1.20;;
18102;SDS011;9178;51.120;6.192;2024-02-14T09:14:41;1.77;;;1.13;;
18102;SDS011;9178;51.120;6.192;2024-02-14T09:17:08;2.67;;;1.40;;
18102;SDS011;9178;51.120;6.192;2024-02-14T09:19:36;1.87;;;1.20;;
18102;SDS011;9178;51.120;6.192;2024-02-14T09:22:03;1.53;;;1.10;;
18102;SDS011;9178;51.120;6.192;2024-02-14T09:24:31;2.87;;;1.27;;
18102;SDS011;9178;51.120;6.192;2024-02-14T09:26:59;2.77;;;1.00;;
18102;SDS011;9178;51.120;6.192;2024-02-14T09:29:28;2.00;;;1.10;;
18102;SDS011;9178;51.120;6.192;2024-02-14T09:31:56;3.00;;;1.30;;
18102;SDS011;9178;51.120;6.192;2024-02-14T09:34:23;2.30;;;1.10;;
18102;SDS011;9178;51.120;6.192;2024-02-14T09:36:50;3.90;;;1.20;;
18102;SDS011;9178;51.120;6.192;2024-02-14T09:39:18;2.90;;;1.20;;
18102;SDS011;9178;51.120;6.192;2024-02-14T09:41:46;2.33;;;1.50;;
18102;SDS011;9178;51.120;6.192;2024-02-14T09:44:19;1.20;;;0.97;;
18102;SDS011;9178;51.120;6.192;2024-02-14T09:46:50;3.27;;;1.37;;
18102;SDS011;9178;51.120;6.192;2024-02-14T09:49:18;5.07;;;1.23;;
18102;SDS011;9178;51.120;6.192;2024-02-14T09:51:46;2.27;;;1.73;;
18102;SDS011;9178;51.120;6.192;2024-02-14T09:54:15;1.87;;;1.10;;
18102;SDS011;9178;51.120;6.192;2024-02-14T09:56:43;3.20;;;1.03;;
18102;SDS011;9178;51.120;6.192;2024-02-14T09:59:18;2.30;;;1.00;;
18102;SDS011;9178;51.120;6.192;2024-02-14T10:01:46;1.47;;;1.17;;
18102;SDS011;9178;51.120;6.192;2024-02-14T10:04:17;2.03;;;1.33;;
18102;SDS011;9178;51.120;6.192;2024-02-14T10:06:45;2.03;;;1.30;;
18102;SDS011;9178;51.120;6.192;2024-02-14T10:09:18;4.27;;;1.07;;
18102;SDS011;9178;51.120;6.192;2024-02-14T10:11:46;1.70;;;1.10;;
18102;SDS011;9178;51.120;6.192;2024-02-14T10:14:13;4.17;;;1.50;;
18102;SDS011;9178;51.120;6.192;2024-02-14T10:16:40;3.13;;;1.40;;
18102;SDS011;9178;51.120;6.192;2024-02-14T10:19:14;1.90;;;1.10;;
18102;SDS011;9178;51.120;6.192;2024-02-14T10:21:43;1.63;;;0.90;;
18102;SDS011;9178;51.120;6.192;2024-02-14T10:24:21;1.10;;;1.00;;
18102;SDS011;9178;51.120;6.192;2024-02-14T10:26:48;3.13;;;1.23;;
18102;SDS011;9178;51.120;6.192;2024-02-14T10:29:15;1.70;;;1.07;;
18102;SDS011;9178;51.120;6.192;2024-02-14T10:31:42;2.80;;;1.27;;
18102;SDS011;9178;51.120;6.192;2024-02-14T10:34:09;3.20;;;1.10;;
18102;SDS011;9178;51.120;6.192;2024-02-14T10:36:38;2.80;;;1.17;;
18102;SDS011;9178;51.120;6.192;2024-02-14T10:39:08;2.63;;;1.10;;
18102;SDS011;9178;51.120;6.192;2024-02-14T10:41:37;1.93;;;1.30;;
18102;SDS011;9178;51.120;6.192;2024-02-14T10:44:04;2.73;;;1.50;;
18102;SDS011;9178;51.120;6.192;2024-02-14T10:46:31;4.87;;;1.17;;
18102;SDS011;9178;51.120;6.192;2024-02-14T10:49:02;1.40;;;0.90;;
18102;SDS011;9178;51.120;6.192;2024-02-14T10:51:31;2.33;;;1.13;;
18102;SDS011;9178;51.120;6.192;2024-02-14T10:54:00;1.60;;;1.00;;
18102;SDS011;9178;51.120;6.192;2024-02-14T10:56:33;1.43;;;1.03;;
18102;SDS011;9178;51.120;6.192;2024-02-14T10:59:04;2.50;;;1.17;;
18102;SDS011;9178;51.120;6.192;2024-02-14T11:01:32;2.13;;;0.70;;
18102;SDS011;9178;51.120;6.192;2024-02-14T11:04:01;1.53;;;0.93;;
18102;SDS011;9178;51.120;6.192;2024-02-14T11:06:30;2.97;;;0.90;;
18102;SDS011;9178;51.120;6.192;2024-02-14T11:08:59;4.43;;;0.90;;
18102;SDS011;9178;51.120;6.192;2024-02-14T11:11:32;1.47;;;1.10;;
18102;SDS011;9178;51.120;6.192;2024-02-14T11:14:00;2.63;;;1.00;;
18102;SDS011;9178;51.120;6.192;2024-02-14T11:16:30;2.37;;;0.90;;
18102;SDS011;9178;51.120;6.192;2024-02-14T11:19:07;3.50;;;1.20;;
18102;SDS011;9178;51.120;6.192;2024-02-14T11:21:35;1.60;;;0.90;;
18102;SDS011;9178;51.120;6.192;2024-02-14T11:24:04;2.67;;;0.87;;
18102;SDS011;9178;51.120;6.192;2024-02-14T11:26:47;1.77;;;0.90;;
18102;SDS011;9178;51.120;6.192;2024-02-14T11:29:16;1.30;;;1.00;;
18102;SDS011;9178;51.120;6.192;2024-02-14T11:31:44;2.00;;;1.00;;
18102;SDS011;9178;51.120;6.192;2024-02-14T11:34:13;2.03;;;1.30;;
18102;SDS011;9178;51.120;6.192;2024-02-14T11:36:41;1.10;;;1.00;;
18102;SDS011;9178;51.120;6.192;2024-02-14T11:39:09;2.00;;;1.30;;
18102;SDS011;9178;51.120;6.192;2024-02-14T11:41:37;1.43;;;1.20;;
18102;SDS011;9178;51.120;6.192;2024-02-14T11:44:06;4.40;;;1.33;;
18102;SDS011;9178;51.120;6.192;2024-02-14T11:46:33;1.80;;;1.10;;
18102;SDS011;9178;51.120;6.192;2024-02-14T11:49:02;4.43;;;1.43;;
18102;SDS011;9178;51.120;6.192;2024-02-14T11:51:31;1.33;;;1.17;;
18102;SDS011;9178;51.120;6.192;2024-02-14T11:54:00;1.37;;;1.20;;
18102;SDS011;9178;51.120;6.192;2024-02-14T11:56:30;2.13;;;1.10;;
18102;SDS011;9178;51.120;6.192;2024-02-14T11:58:59;2.87;;;1.20;;
18102;SDS011;9178;51.120;6.192;2024-02-14T12:01:30;1.57;;;1.23;;
18102;SDS011;9178;51.120;6.192;2024-02-14T12:03:58;1.37;;;0.83;;
18102;SDS011;9178;51.120;6.192;2024-02-14T12:06:26;0.83;;;0.70;;
18102;SDS011;9178;51.120;6.192;2024-02-14T12:08:53;1.07;;;0.93;;
18102;SDS011;9178;51.120;6.192;2024-02-14T12:11:22;0.70;;;0.70;;
18102;SDS011;9178;51.120;6.192;2024-02-14T12:13:50;1.03;;;0.93;;
18102;SDS011;9178;51.120;6.192;2024-02-14T12:16:19;2.10;;;0.80;;
18102;SDS011;9178;51.120;6.192;2024-02-14T12:18:48;1.00;;;0.60;;
18102;SDS011;9178;51.120;6.192;2024-02-14T12:21:15;1.43;;;0.80;;
18102;SDS011;9178;51.120;6.192;2024-02-14T12:23:43;0.60;;;0.60;;
18102;SDS011;9178;51.120;6.192;2024-02-14T12:26:10;0.57;;;0.30;;
18102;SDS011;9178;51.120;6.192;2024-02-14T12:28:45;0.60;;;0.60;;
18102;SDS011;9178;51.120;6.192;2024-02-14T12:31:21;0.57;;;0.57;;
18102;SDS011;9178;51.120;6.192;2024-02-14T12:33:50;0.57;;;0.50;;
18102;SDS011;9178;51.120;6.192;2024-02-14T12:36:19;1.10;;;0.60;;
18102;SDS011;9178;51.120;6.192;2024-02-14T12:38:47;0.57;;;0.57;;
18102;SDS011;9178;51.120;6.192;2024-02-14T12:41:14;0.67;;;0.50;;
18102;SDS011;9178;51.120;6.192;2024-02-14T12:43:42;0.97;;;0.60;;
18102;SDS011;9178;51.120;6.192;2024-02-14T12:46:09;0.80;;;0.60;;
18102;SDS011;9178;51.120;6.192;2024-02-14T12:48:36;0.63;;;0.63;;
18102;SDS011;9178;51.120;6.192;2024-02-14T12:51:05;0.63;;;0.63;;
18102;SDS011;9178;51.120;6.192;2024-02-14T12:53:32;0.60;;;0.60;;
18102;SDS011;9178;51.120;6.192;2024-02-14T12:56:00;1.43;;;0.57;;
18102;SDS011;9178;51.120;6.192;2024-02-14T12:58:27;0.60;;;0.60;;
18102;SDS011;9178;51.120;6.192;2024-02-14T13:00:55;0.80;;;0.70;;
18102;SDS011;9178;51.120;6.192;2024-02-14T13:03:23;0.63;;;0.50;;
18102;SDS011;9178;51.120;6.192;2024-02-14T13:05:51;0.50;;;0.50;;
18102;SDS011;9178;51.120;6.192;2024-02-14T13:08:20;0.57;;;0.57;;
18102;SDS011;9178;51.120;6.192;2024-02-14T13:10:48;0.50;;;0.50;;
18102;SDS011;9178;51.120;6.192;2024-02-14T13:13:16;2.37;;;0.60;;
18102;SDS011;9178;51.120;6.192;2024-02-14T13:15:43;0.67;;;0.50;;
18102;SDS011;9178;51.120;6.192;2024-02-14T13:18:10;0.70;;;0.70;;
18102;SDS011;9178;51.120;6.192;2024-02-14T13:20:37;1.47;;;0.60;;
18102;SDS011;9178;51.120;6.192;2024-02-14T13:23:05;1.77;;;0.67;;
18102;SDS011;9178;51.120;6.192;2024-02-14T13:25:35;0.40;;;0.40;;
18102;SDS011;9178;51.120;6.192;2024-02-14T13:28:06;0.60;;;0.60;;
18102;SDS011;9178;51.120;6.192;2024-02-14T13:30:35;0.97;;;0.50;;
18102;SDS011;9178;51.120;6.192;2024-02-14T13:33:02;1.23;;;0.60;;
18102;SDS011;9178;51.120;6.192;2024-02-14T13:35:30;0.97;;;0.50;;
18102;SDS011;9178;51.120;6.192;2024-02-14T13:38:03;0.80;;;0.50;;
18102;SDS011;9178;51.120;6.192;2024-02-14T13:40:30;1.27;;;0.70;;
18102;SDS011;9178;51.120;6.192;2024-02-14T13:42:59;1.13;;;0.60;;
18102;SDS011;9178;51.120;6.192;2024-02-14T13:45:27;1.53;;;0.70;;
18102;SDS011;9178;51.120;6.192;2024-02-14T13:48:07;1.33;;;0.60;;
18102;SDS011;9178;51.120;6.192;2024-02-14T13:50:35;0.60;;;0.50;;
18102;SDS011;9178;51.120;6.192;2024-02-14T13:53:03;1.27;;;0.77;;
18102;SDS011;9178;51.120;6.192;2024-02-14T13:55:30;0.87;;;0.60;;
18102;SDS011;9178;51.120;6.192;2024-02-14T13:58:02;0.60;;;0.60;;
18102;SDS011;9178;51.120;6.192;2024-02-14T14:00:30;0.90;;;0.80;;
18102;SDS011;9178;51.120;6.192;2024-02-14T14:02:58;0.90;;;0.63;;
18102;SDS011;9178;51.120;6.192;2024-02-14T14:05:25;0.90;;;0.70;;
18102;SDS011;9178;51.120;6.192;2024-02-14T14:07:52;1.47;;;0.80;;
18102;SDS011;9178;51.120;6.192;2024-02-14T14:10:20;1.30;;;0.83;;
18102;SDS011;9178;51.120;6.192;2024-02-14T14:12:48;0.70;;;0.70;;
18102;SDS011;9178;51.120;6.192;2024-02-14T14:15:17;1.30;;;0.73;;
18102;SDS011;9178;51.120;6.192;2024-02-14T14:17:44;0.60;;;0.60;;
18102;SDS011;9178;51.120;6.192;2024-02-14T14:20:15;0.70;;;0.70;;
18102;SDS011;9178;51.120;6.192;2024-02-14T14:22:46;1.70;;;0.70;;
18102;SDS011;9178;51.120;6.192;2024-02-14T14:25:16;0.70;;;0.70;;
18102;SDS011;9178;51.120;6.192;2024-02-14T14:27:48;3.27;;;1.57;;
18102;SDS011;9178;51.120;6.192;2024-02-14T14:30:19;1.10;;;0.90;;
18102;SDS011;9178;51.120;6.192;2024-02-14T14:32:46;0.80;;;0.80;;
18102;SDS011;9178;51.120;6.192;2024-02-14T14:35:14;1.70;;;0.80;;
18102;SDS011;9178;51.120;6.192;2024-02-14T14:37:41;0.70;;;0.70;;
18102;SDS011;9178;51.120;6.192;2024-02-14T14:40:09;1.00;;;0.90;;
18102;SDS011;9178;51.120;6.192;2024-02-14T14:42:36;0.93;;;0.80;;
18102;SDS011;9178;51.120;6.192;2024-02-14T14:45:04;1.10;;;1.10;;
18102;SDS011;9178;51.120;6.192;2024-02-14T14:47:34;0.80;;;0.80;;
18102;SDS011;9178;51.120;6.192;2024-02-14T14:50:01;1.70;;;0.73;;
18102;SDS011;9178;51.120;6.192;2024-02-14T14:52:33;1.03;;;0.93;;
18102;SDS011;9178;51.120;6.192;2024-02-14T14:55:03;0.90;;;0.90;;
18102;SDS011;9178;51.120;6.192;2024-02-14T14:57:31;1.10;;;0.90;;
18102;SDS011;9178;51.120;6.192;2024-02-14T15:00:00;0.70;;;0.70;;
18102;SDS011;9178;51.120;6.192;2024-02-14T15:02:27;1.07;;;0.80;;
18102;SDS011;9178;51.120;6.192;2024-02-14T15:04:56;1.90;;;1.00;;
18102;SDS011;9178;51.120;6.192;2024-02-14T15:07:23;1.20;;;1.10;;